sensor_id;sensor_type;location;lat;lon;timestamp;P1;durP1;ratioP1;P2;durP2;ratioP2
22644;SDS011;11489;50.834;6.752;2023-04-01T00:00:48;1.05;;;0.30;;
22644;SDS011;11489;50.834;6.752;2023-04-01T00:03:14;0.85;;;0.30;;
22644;SDS011;11489;50.834;6.752;2023-04-01T00:05:42;1.58;;;0.38;;
22644;SDS011;11489;50.834;6.752;2023-04-01T00:08:08;1.85;;;0.30;;
22644;SDS011;11489;50.834;6.752;2023-04-01T00:10:34;0.50;;;0.30;;
22644;SDS011;11489;50.834;6.752;2023-04-01T00:13:00;1.25;;;0.20;;
22644;SDS011;11489;50.834;6.752;2023-04-01T00:15:33;2.33;;;0.28;;
22644;SDS011;11489;50.834;6.752;2023-04-01T00:17:58;0.40;;;0.30;;
22644;SDS011;11489;50.834;6.752;2023-04-01T00:20:25;0.60;;;0.20;;
22644;SDS011;11489;50.834;6.752;2023-04-01T00:22:51;0.75;;;0.40;;
22644;SDS011;11489;50.834;6.752;2023-04-01T00:25:17;0.73;;;0.30;;
22644;SDS011;11489;50.834;6.752;2023-04-01T00:27:43;0.77;;;0.20;;
22644;SDS011;11489;50.834;6.752;2023-04-01T00:30:09;0.57;;;0.20;;
22644;SDS011;11489;50.834;6.752;2023-04-01T00:32:36;1.90;;;0.32;;
22644;SDS011;11489;50.834;6.752;2023-04-01T00:35:02;1.25;;;0.20;;
22644;SDS011;11489;50.834;6.752;2023-04-01T00:37:28;0.63;;;0.20;;
22644;SDS011;11489;50.834;6.752;2023-04-01T00:39:54;0.60;;;0.30;;
22644;SDS011;11489;50.834;6.752;2023-04-01T00:42:20;0.28;;;0.20;;
22644;SDS011;11489;50.834;6.752;2023-04-01T00:44:52;0.47;;;0.20;;
22644;SDS011;11489;50.834;6.752;2023-04-01T00:47:19;0.52;;;0.30;;
22644;SDS011;11489;50.834;6.752;2023-04-01T00:49:46;0.85;;;0.30;;
22644;SDS011;11489;50.834;6.752;2023-04-01T00:52:15;1.05;;;0.30;;
22644;SDS011;11489;50.834;6.752;2023-04-01T00:54:45;0.40;;;0.20;;
22644;SDS011;11489;50.834;6.752;2023-04-01T00:57:13;1.10;;;0.32;;
22644;SDS011;11489;50.834;6.752;2023-04-01T00:59:48;0.40;;;0.20;;
22644;SDS011;11489;50.834;6.752;2023-04-01T01:02:18;0.98;;;0.45;;
22644;SDS011;11489;50.834;6.752;2023-04-01T01:04:44;0.40;;;0.10;;
22644;SDS011;11489;50.834;6.752;2023-04-01T01:15:20;1.00;;;0.22;;
22644;SDS011;11489;50.834;6.752;2023-04-01T01:20:32;0.22;;;0.20;;
22644;SDS011;11489;50.834;6.752;2023-04-01T01:26:40;1.23;;;0.20;;
22644;SDS011;11489;50.834;6.752;2023-04-01T01:34:36;0.22;;;0.20;;
22644;SDS011;11489;50.834;6.752;2023-04-01T01:37:24;1.50;;;0.10;;
22644;SDS011;11489;50.834;6.752;2023-04-01T01:39:54;0.10;;;0.10;;
22644;SDS011;11489;50.834;6.752;2023-04-01T01:42:23;0.77;;;0.20;;
22644;SDS011;11489;50.834;6.752;2023-04-01T01:44:52;1.50;;;0.20;;
22644;SDS011;11489;50.834;6.752;2023-04-01T01:47:20;0.52;;;0.10;;
22644;SDS011;11489;50.834;6.752;2023-04-01T01:49:48;1.00;;;0.32;;
22644;SDS011;11489;50.834;6.752;2023-04-01T01:52:16;0.57;;;0.20;;
22644;SDS011;11489;50.834;6.752;2023-04-01T01:54:47;0.80;;;0.17;;
22644;SDS011;11489;50.834;6.752;2023-04-01T01:57:13;0.65;;;0.10;;
22644;SDS011;11489;50.834;6.752;2023-04-01T01:59:42;0.88;;;0.20;;
22644;SDS011;11489;50.834;6.752;2023-04-01T02:02:11;1.05;;;0.22;;
22644;SDS011;11489;50.834;6.752;2023-04-01T02:04:39;0.25;;;0.20;;
22644;SDS011;11489;50.834;6.752;2023-04-01T02:07:08;0.30;;;0.20;;
22644;SDS011;11489;50.834;6.752;2023-04-01T02:09:38;1.50;;;0.25;;
22644;SDS011;11489;50.834;6.752;2023-04-01T02:12:08;0.10;;;0.10;;
22644;SDS011;11489;50.834;6.752;2023-04-01T02:14:56;0.43;;;0.20;;
22644;SDS011;11489;50.834;6.752;2023-04-01T02:17:26;0.98;;;0.30;;
22644;SDS011;11489;50.834;6.752;2023-04-01T02:22:33;1.35;;;0.43;;
22644;SDS011;11489;50.834;6.752;2023-04-01T02:25:09;0.20;;;0.20;;
22644;SDS011;11489;50.834;6.752;2023-04-01T02:27:37;0.63;;;0.20;;
22644;SDS011;11489;50.834;6.752;2023-04-01T02:30:04;0.28;;;0.20;;
22644;SDS011;11489;50.834;6.752;2023-04-01T02:32:32;0.13;;;0.13;;
22644;SDS011;11489;50.834;6.752;2023-04-01T02:35:00;0.57;;;0.20;;
22644;SDS011;11489;50.834;6.752;2023-04-01T02:37:30;0.35;;;0.20;;
22644;SDS011;11489;50.834;6.752;2023-04-01T02:40:06;0.70;;;0.25;;
22644;SDS011;11489;50.834;6.752;2023-04-01T02:42:32;0.32;;;0.20;;
22644;SDS011;11489;50.834;6.752;2023-04-01T02:44:59;0.30;;;0.10;;
22644;SDS011;11489;50.834;6.752;2023-04-01T02:47:24;0.50;;;0.20;;
22644;SDS011;11489;50.834;6.752;2023-04-01T02:49:50;0.10;;;0.10;;
22644;SDS011;11489;50.834;6.752;2023-04-01T02:52:16;0.38;;;0.10;;
22644;SDS011;11489;50.834;6.752;2023-04-01T02:54:41;0.28;;;0.10;;
22644;SDS011;11489;50.834;6.752;2023-04-01T02:57:07;0.10;;;0.10;;
22644;SDS011;11489;50.834;6.752;2023-04-01T02:59:33;0.40;;;0.22;;
22644;SDS011;11489;50.834;6.752;2023-04-01T03:01:58;0.10;;;0.10;;
22644;SDS011;11489;50.834;6.752;2023-04-01T03:04:24;0.32;;;0.15;;
22644;SDS011;11489;50.834;6.752;2023-04-01T03:06:50;0.10;;;0.10;;
22644;SDS011;11489;50.834;6.752;2023-04-01T03:09:16;0.20;;;0.10;;
22644;SDS011;11489;50.834;6.752;2023-04-01T03:11:42;0.43;;;0.20;;
22644;SDS011;11489;50.834;6.752;2023-04-01T03:14:07;0.20;;;0.20;;
22644;SDS011;11489;50.834;6.752;2023-04-01T03:16:33;0.20;;;0.10;;
22644;SDS011;11489;50.834;6.752;2023-04-01T03:18:58;0.47;;;0.20;;
22644;SDS011;11489;50.834;6.752;2023-04-01T03:21:26;0.10;;;0.10;;
22644;SDS011;11489;50.834;6.752;2023-04-01T03:23:52;0.40;;;0.10;;
22644;SDS011;11489;50.834;6.752;2023-04-01T03:26:18;0.20;;;0.10;;
22644;SDS011;11489;50.834;6.752;2023-04-01T03:28:44;0.40;;;0.10;;
22644;SDS011;11489;50.834;6.752;2023-04-01T03:31:09;0.30;;;0.20;;
22644;SDS011;11489;50.834;6.752;2023-04-01T03:33:36;0.20;;;0.10;;
22644;SDS011;11489;50.834;6.752;2023-04-01T03:36:01;0.10;;;0.10;;
22644;SDS011;11489;50.834;6.752;2023-04-01T03:38:31;0.17;;;0.10;;
22644;SDS011;11489;50.834;6.752;2023-04-01T03:41:00;1.08;;;0.10;;
22644;SDS011;11489;50.834;6.752;2023-04-01T03:43:26;0.98;;;0.20;;
22644;SDS011;11489;50.834;6.752;2023-04-01T03:45:52;0.10;;;0.10;;
22644;SDS011;11489;50.834;6.752;2023-04-01T03:48:19;0.17;;;0.17;;
22644;SDS011;11489;50.834;6.752;2023-04-01T03:50:45;0.10;;;0.10;;
22644;SDS011;11489;50.834;6.752;2023-04-01T03:53:11;0.43;;;0.20;;
22644;SDS011;11489;50.834;6.752;2023-04-01T03:55:37;1.27;;;0.10;;
22644;SDS011;11489;50.834;6.752;2023-04-01T03:58:04;0.10;;;0.10;;
22644;SDS011;11489;50.834;6.752;2023-04-01T04:00:31;0.20;;;0.10;;
22644;SDS011;11489;50.834;6.752;2023-04-01T04:02:57;0.10;;;0.10;;
22644;SDS011;11489;50.834;6.752;2023-04-01T04:05:23;0.10;;;0.10;;
22644;SDS011;11489;50.834;6.752;2023-04-01T04:07:50;0.98;;;0.20;;
22644;SDS011;11489;50.834;6.752;2023-04-01T04:10:16;0.10;;;0.10;;
22644;SDS011;11489;50.834;6.752;2023-04-01T04:12:43;0.10;;;0.10;;
22644;SDS011;11489;50.834;6.752;2023-04-01T04:15:09;0.10;;;0.10;;
22644;SDS011;11489;50.834;6.752;2023-04-01T04:17:35;0.10;;;0.10;;
22644;SDS011;11489;50.834;6.752;2023-04-01T04:20:00;0.55;;;0.10;;
22644;SDS011;11489;50.834;6.752;2023-04-01T04:22:26;0.20;;;0.10;;
22644;SDS011;11489;50.834;6.752;2023-04-01T04:24:52;0.10;;;0.10;;
22644;SDS011;11489;50.834;6.752;2023-04-01T04:27:18;0.25;;;0.15;;
22644;SDS011;11489;50.834;6.752;2023-04-01T04:29:44;0.28;;;0.10;;
22644;SDS011;11489;50.834;6.752;2023-04-01T04:32:10;0.20;;;0.20;;
22644;SDS011;11489;50.834;6.752;2023-04-01T04:34:35;0.10;;;0.10;;
22644;SDS011;11489;50.834;6.752;2023-04-01T04:37:01;0.38;;;0.10;;
22644;SDS011;11489;50.834;6.752;2023-04-01T04:39:27;0.15;;;0.08;;
22644;SDS011;11489;50.834;6.752;2023-04-01T04:41:53;0.10;;;0.10;;
22644;SDS011;11489;50.834;6.752;2023-04-01T04:44:18;0.20;;;0.10;;
22644;SDS011;11489;50.834;6.752;2023-04-01T04:46:44;0.17;;;0.10;;
22644;SDS011;11489;50.834;6.752;2023-04-01T04:49:10;0.20;;;0.10;;
22644;SDS011;11489;50.834;6.752;2023-04-01T04:51:35;0.15;;;0.10;;
22644;SDS011;11489;50.834;6.752;2023-04-01T04:54:02;0.10;;;0.10;;
22644;SDS011;11489;50.834;6.752;2023-04-01T04:56:28;0.55;;;0.10;;
22644;SDS011;11489;50.834;6.752;2023-04-01T04:58:54;0.60;;;0.30;;
22644;SDS011;11489;50.834;6.752;2023-04-01T05:01:20;1.77;;;0.90;;
22644;SDS011;11489;50.834;6.752;2023-04-01T05:03:46;0.63;;;0.40;;
22644;SDS011;11489;50.834;6.752;2023-04-01T05:06:12;0.45;;;0.30;;
22644;SDS011;11489;50.834;6.752;2023-04-01T05:08:39;0.65;;;0.40;;
22644;SDS011;11489;50.834;6.752;2023-04-01T05:11:07;0.47;;;0.30;;
22644;SDS011;11489;50.834;6.752;2023-04-01T05:13:36;0.20;;;0.20;;
22644;SDS011;11489;50.834;6.752;2023-04-01T05:16:02;0.20;;;0.20;;
22644;SDS011;11489;50.834;6.752;2023-04-01T05:18:28;0.30;;;0.30;;
22644;SDS011;11489;50.834;6.752;2023-04-01T05:20:54;0.50;;;0.30;;
22644;SDS011;11489;50.834;6.752;2023-04-01T05:23:20;1.95;;;0.30;;
22644;SDS011;11489;50.834;6.752;2023-04-01T05:25:50;0.30;;;0.30;;
22644;SDS011;11489;50.834;6.752;2023-04-01T05:28:19;0.50;;;0.38;;
22644;SDS011;11489;50.834;6.752;2023-04-01T05:30:45;0.43;;;0.40;;
22644;SDS011;11489;50.834;6.752;2023-04-01T05:33:12;1.92;;;0.50;;
22644;SDS011;11489;50.834;6.752;2023-04-01T05:35:38;0.30;;;0.30;;
22644;SDS011;11489;50.834;6.752;2023-04-01T05:38:05;0.30;;;0.30;;
22644;SDS011;11489;50.834;6.752;2023-04-01T05:40:31;0.30;;;0.30;;
22644;SDS011;11489;50.834;6.752;2023-04-01T05:42:57;0.52;;;0.30;;
22644;SDS011;11489;50.834;6.752;2023-04-01T05:45:24;0.30;;;0.30;;
22644;SDS011;11489;50.834;6.752;2023-04-01T05:47:50;0.20;;;0.20;;
22644;SDS011;11489;50.834;6.752;2023-04-01T05:50:15;2.25;;;0.30;;
22644;SDS011;11489;50.834;6.752;2023-04-01T05:52:41;0.75;;;0.28;;
22644;SDS011;11489;50.834;6.752;2023-04-01T05:55:07;0.43;;;0.40;;
22644;SDS011;11489;50.834;6.752;2023-04-01T05:57:33;0.28;;;0.25;;
22644;SDS011;11489;50.834;6.752;2023-04-01T05:59:59;0.60;;;0.30;;
22644;SDS011;11489;50.834;6.752;2023-04-01T06:02:24;0.50;;;0.28;;
22644;SDS011;11489;50.834;6.752;2023-04-01T06:04:52;1.38;;;0.40;;
22644;SDS011;11489;50.834;6.752;2023-04-01T06:07:25;1.90;;;0.40;;
22644;SDS011;11489;50.834;6.752;2023-04-01T06:09:53;0.95;;;0.50;;
22644;SDS011;11489;50.834;6.752;2023-04-01T06:12:40;0.63;;;0.40;;
22644;SDS011;11489;50.834;6.752;2023-04-01T06:29:16;1.13;;;0.70;;
22644;SDS011;11489;50.834;6.752;2023-04-01T06:32:01;1.00;;;0.90;;
22644;SDS011;11489;50.834;6.752;2023-04-01T06:37:22;0.95;;;0.85;;
22644;SDS011;11489;50.834;6.752;2023-04-01T06:40:08;1.13;;;0.85;;
22644;SDS011;11489;50.834;6.752;2023-04-01T06:48:19;2.90;;;1.00;;
22644;SDS011;11489;50.834;6.752;2023-04-01T06:51:13;2.25;;;0.90;;
22644;SDS011;11489;50.834;6.752;2023-04-01T06:56:32;0.95;;;0.60;;
22644;SDS011;11489;50.834;6.752;2023-04-01T06:59:02;1.17;;;0.75;;
22644;SDS011;11489;50.834;6.752;2023-04-01T07:01:38;1.60;;;0.80;;
22644;SDS011;11489;50.834;6.752;2023-04-01T07:04:26;0.82;;;0.70;;
22644;SDS011;11489;50.834;6.752;2023-04-01T07:09:50;1.95;;;0.80;;
22644;SDS011;11489;50.834;6.752;2023-04-01T07:12:21;0.75;;;0.50;;
22644;SDS011;11489;50.834;6.752;2023-04-01T07:14:55;1.15;;;0.60;;
22644;SDS011;11489;50.834;6.752;2023-04-01T07:17:23;0.70;;;0.70;;
22644;SDS011;11489;50.834;6.752;2023-04-01T07:20:02;0.95;;;0.65;;
22644;SDS011;11489;50.834;6.752;2023-04-01T07:22:48;1.80;;;0.85;;
22644;SDS011;11489;50.834;6.752;2023-04-01T07:27:45;1.63;;;0.73;;
22644;SDS011;11489;50.834;6.752;2023-04-01T07:30:21;2.30;;;0.55;;
22644;SDS011;11489;50.834;6.752;2023-04-01T07:35:38;2.17;;;0.90;;
22644;SDS011;11489;50.834;6.752;2023-04-01T07:44:25;0.80;;;0.70;;
22644;SDS011;11489;50.834;6.752;2023-04-01T07:46:59;1.42;;;0.70;;
22644;SDS011;11489;50.834;6.752;2023-04-01T07:50:02;1.00;;;0.60;;
22644;SDS011;11489;50.834;6.752;2023-04-01T07:56:02;0.85;;;0.52;;
22644;SDS011;11489;50.834;6.752;2023-04-01T07:59:02;1.13;;;0.57;;
22644;SDS011;11489;50.834;6.752;2023-04-01T08:04:29;1.42;;;0.57;;
22644;SDS011;11489;50.834;6.752;2023-04-01T08:09:55;0.40;;;0.40;;
22644;SDS011;11489;50.834;6.752;2023-04-01T08:15:52;0.95;;;0.50;;
22644;SDS011;11489;50.834;6.752;2023-04-01T08:18:56;0.40;;;0.40;;
22644;SDS011;11489;50.834;6.752;2023-04-01T08:21:29;0.70;;;0.43;;
22644;SDS011;11489;50.834;6.752;2023-04-01T08:26:51;1.17;;;0.60;;
22644;SDS011;11489;50.834;6.752;2023-04-01T08:29:22;0.98;;;0.50;;
22644;SDS011;11489;50.834;6.752;2023-04-01T08:32:11;0.47;;;0.47;;
22644;SDS011;11489;50.834;6.752;2023-04-01T08:34:43;1.10;;;0.50;;
22644;SDS011;11489;50.834;6.752;2023-04-01T08:37:19;2.25;;;0.63;;
22644;SDS011;11489;50.834;6.752;2023-04-01T08:39:50;0.40;;;0.40;;
22644;SDS011;11489;50.834;6.752;2023-04-01T08:45:11;0.77;;;0.55;;
22644;SDS011;11489;50.834;6.752;2023-04-01T08:50:56;2.75;;;0.60;;
22644;SDS011;11489;50.834;6.752;2023-04-01T08:54:03;1.05;;;0.40;;
22644;SDS011;11489;50.834;6.752;2023-04-01T08:56:42;0.45;;;0.40;;
22644;SDS011;11489;50.834;6.752;2023-04-01T08:59:38;0.50;;;0.38;;
22644;SDS011;11489;50.834;6.752;2023-04-01T09:02:22;0.90;;;0.50;;
22644;SDS011;11489;50.834;6.752;2023-04-01T09:23:47;0.55;;;0.40;;
22644;SDS011;11489;50.834;6.752;2023-04-01T09:26:48;0.30;;;0.30;;
22644;SDS011;11489;50.834;6.752;2023-04-01T09:29:34;0.47;;;0.40;;
22644;SDS011;11489;50.834;6.752;2023-04-01T09:41:07;0.60;;;0.40;;
22644;SDS011;11489;50.834;6.752;2023-04-01T09:44:03;0.43;;;0.43;;
22644;SDS011;11489;50.834;6.752;2023-04-01T09:50:27;1.20;;;0.50;;
22644;SDS011;11489;50.834;6.752;2023-04-01T09:53:09;1.02;;;0.47;;
22644;SDS011;11489;50.834;6.752;2023-04-01T10:36:56;0.32;;;0.32;;
22644;SDS011;11489;50.834;6.752;2023-04-01T10:56:34;0.98;;;0.50;;
22644;SDS011;11489;50.834;6.752;2023-04-01T11:04:46;0.45;;;0.45;;
22644;SDS011;11489;50.834;6.752;2023-04-01T11:13:06;0.70;;;0.50;;
22644;SDS011;11489;50.834;6.752;2023-04-01T11:27:21;0.60;;;0.60;;
22644;SDS011;11489;50.834;6.752;2023-04-01T11:30:29;0.45;;;0.45;;
22644;SDS011;11489;50.834;6.752;2023-04-01T11:38:38;0.52;;;0.52;;
22644;SDS011;11489;50.834;6.752;2023-04-01T11:44:19;0.50;;;0.50;;
22644;SDS011;11489;50.834;6.752;2023-04-01T11:47:00;0.85;;;0.82;;
22644;SDS011;11489;50.834;6.752;2023-04-01T11:49:44;0.65;;;0.60;;
22644;SDS011;11489;50.834;6.752;2023-04-01T11:52:44;0.60;;;0.60;;
22644;SDS011;11489;50.834;6.752;2023-04-01T11:55:25;0.63;;;0.63;;
22644;SDS011;11489;50.834;6.752;2023-04-01T11:58:00;0.82;;;0.80;;
22644;SDS011;11489;50.834;6.752;2023-04-01T12:09:01;0.70;;;0.70;;
22644;SDS011;11489;50.834;6.752;2023-04-01T12:17:03;0.85;;;0.70;;
22644;SDS011;11489;50.834;6.752;2023-04-01T12:34:23;1.08;;;0.88;;
22644;SDS011;11489;50.834;6.752;2023-04-01T12:37:18;0.75;;;0.60;;
22644;SDS011;11489;50.834;6.752;2023-04-01T12:39:56;0.70;;;0.70;;
22644;SDS011;11489;50.834;6.752;2023-04-01T12:42:38;0.70;;;0.70;;
22644;SDS011;11489;50.834;6.752;2023-04-01T12:50:47;0.80;;;0.80;;
22644;SDS011;11489;50.834;6.752;2023-04-01T12:56:27;1.20;;;0.95;;
22644;SDS011;11489;50.834;6.752;2023-04-01T12:59:15;1.05;;;0.95;;
22644;SDS011;11489;50.834;6.752;2023-04-01T13:02:01;1.10;;;1.00;;
22644;SDS011;11489;50.834;6.752;2023-04-01T13:07:49;0.80;;;0.80;;
22644;SDS011;11489;50.834;6.752;2023-04-01T13:10:31;0.70;;;0.70;;
22644;SDS011;11489;50.834;6.752;2023-04-01T13:16:16;0.70;;;0.70;;
22644;SDS011;11489;50.834;6.752;2023-04-01T13:19:08;0.60;;;0.60;;
22644;SDS011;11489;50.834;6.752;2023-04-01T13:24:24;0.80;;;0.80;;
22644;SDS011;11489;50.834;6.752;2023-04-01T13:35:41;1.35;;;1.25;;
22644;SDS011;11489;50.834;6.752;2023-04-01T13:38:44;1.50;;;1.40;;
22644;SDS011;11489;50.834;6.752;2023-04-01T13:41:36;1.85;;;1.45;;
22644;SDS011;11489;50.834;6.752;2023-04-01T13:44:28;1.55;;;1.45;;
22644;SDS011;11489;50.834;6.752;2023-04-01T13:52:52;1.73;;;1.23;;
22644;SDS011;11489;50.834;6.752;2023-04-01T13:55:44;1.80;;;1.40;;
22644;SDS011;11489;50.834;6.752;2023-04-01T13:58:33;1.20;;;1.10;;
22644;SDS011;11489;50.834;6.752;2023-04-01T14:01:25;1.38;;;1.15;;
22644;SDS011;11489;50.834;6.752;2023-04-01T14:04:02;1.40;;;1.10;;
22644;SDS011;11489;50.834;6.752;2023-04-01T14:15:04;1.52;;;0.90;;
22644;SDS011;11489;50.834;6.752;2023-04-01T14:20:48;1.30;;;1.13;;
22644;SDS011;11489;50.834;6.752;2023-04-01T14:40:05;1.08;;;0.90;;
22644;SDS011;11489;50.834;6.752;2023-04-01T14:51:33;1.98;;;1.10;;
22644;SDS011;11489;50.834;6.752;2023-04-01T14:53:58;6.20;;;1.05;;
22644;SDS011;11489;50.834;6.752;2023-04-01T14:59:39;1.25;;;1.13;;
22644;SDS011;11489;50.834;6.752;2023-04-01T15:02:24;2.08;;;1.40;;
22644;SDS011;11489;50.834;6.752;2023-04-01T15:05:14;2.63;;;1.50;;
22644;SDS011;11489;50.834;6.752;2023-04-01T15:08:06;3.33;;;1.42;;
22644;SDS011;11489;50.834;6.752;2023-04-01T15:16:59;2.15;;;1.65;;
22644;SDS011;11489;50.834;6.752;2023-04-01T15:22:27;2.67;;;1.58;;
22644;SDS011;11489;50.834;6.752;2023-04-01T15:25:18;2.42;;;1.50;;
22644;SDS011;11489;50.834;6.752;2023-04-01T15:30:54;3.45;;;1.80;;
22644;SDS011;11489;50.834;6.752;2023-04-01T15:36:19;1.70;;;1.60;;
22644;SDS011;11489;50.834;6.752;2023-04-01T15:39:05;1.85;;;1.60;;
22644;SDS011;11489;50.834;6.752;2023-04-01T15:44:52;1.73;;;1.55;;
22644;SDS011;11489;50.834;6.752;2023-04-01T15:47:32;2.25;;;1.60;;
22644;SDS011;11489;50.834;6.752;2023-04-01T15:55:59;1.80;;;1.60;;
22644;SDS011;11489;50.834;6.752;2023-04-01T16:01:15;2.22;;;1.88;;
22644;SDS011;11489;50.834;6.752;2023-04-01T16:03:52;3.00;;;2.05;;
22644;SDS011;11489;50.834;6.752;2023-04-01T16:06:34;4.10;;;1.90;;
22644;SDS011;11489;50.834;6.752;2023-04-01T16:09:56;2.88;;;2.03;;
22644;SDS011;11489;50.834;6.752;2023-04-01T16:15:01;1.67;;;1.58;;
22644;SDS011;11489;50.834;6.752;2023-04-01T16:20:20;2.05;;;1.60;;
22644;SDS011;11489;50.834;6.752;2023-04-01T16:25:44;1.60;;;1.50;;
22644;SDS011;11489;50.834;6.752;2023-04-01T16:31:30;1.63;;;1.35;;
22644;SDS011;11489;50.834;6.752;2023-04-01T16:34:08;1.52;;;1.38;;
22644;SDS011;11489;50.834;6.752;2023-04-01T16:36:45;1.38;;;1.23;;
22644;SDS011;11489;50.834;6.752;2023-04-01T16:45:01;1.83;;;1.00;;
22644;SDS011;11489;50.834;6.752;2023-04-01T16:47:50;1.30;;;1.20;;
22644;SDS011;11489;50.834;6.752;2023-04-01T16:50:21;0.98;;;0.88;;
22644;SDS011;11489;50.834;6.752;2023-04-01T16:58:27;1.60;;;1.23;;
22644;SDS011;11489;50.834;6.752;2023-04-01T17:01:03;1.38;;;1.20;;
22644;SDS011;11489;50.834;6.752;2023-04-01T17:03:42;1.73;;;1.20;;
22644;SDS011;11489;50.834;6.752;2023-04-01T17:06:17;2.00;;;1.25;;
22644;SDS011;11489;50.834;6.752;2023-04-01T17:11:38;1.67;;;1.40;;
22644;SDS011;11489;50.834;6.752;2023-04-01T17:17:20;1.70;;;1.30;;
22644;SDS011;11489;50.834;6.752;2023-04-01T17:20:11;1.25;;;1.15;;
22644;SDS011;11489;50.834;6.752;2023-04-01T17:25:45;0.93;;;0.88;;
22644;SDS011;11489;50.834;6.752;2023-04-01T17:31:26;1.40;;;1.30;;
22644;SDS011;11489;50.834;6.752;2023-04-01T17:34:06;1.27;;;1.17;;
22644;SDS011;11489;50.834;6.752;2023-04-01T17:37:03;1.40;;;1.25;;
22644;SDS011;11489;50.834;6.752;2023-04-01T17:42:40;1.58;;;1.48;;
22644;SDS011;11489;50.834;6.752;2023-04-01T17:45:33;1.77;;;1.50;;
22644;SDS011;11489;50.834;6.752;2023-04-01T17:51:17;4.45;;;2.33;;
22644;SDS011;11489;50.834;6.752;2023-04-01T17:54:32;3.03;;;2.10;;
22644;SDS011;11489;50.834;6.752;2023-04-01T17:57:14;3.50;;;2.20;;
22644;SDS011;11489;50.834;6.752;2023-04-01T17:59:51;3.08;;;2.03;;
22644;SDS011;11489;50.834;6.752;2023-04-01T18:02:43;3.17;;;2.40;;
22644;SDS011;11489;50.834;6.752;2023-04-01T18:08:12;2.67;;;2.13;;
22644;SDS011;11489;50.834;6.752;2023-04-01T18:10:53;2.45;;;1.80;;
22644;SDS011;11489;50.834;6.752;2023-04-01T18:16:23;2.20;;;1.80;;
22644;SDS011;11489;50.834;6.752;2023-04-01T18:19:11;2.65;;;2.10;;
22644;SDS011;11489;50.834;6.752;2023-04-01T18:21:55;2.80;;;1.77;;
22644;SDS011;11489;50.834;6.752;2023-04-01T18:24:42;2.50;;;2.25;;
22644;SDS011;11489;50.834;6.752;2023-04-01T18:27:17;2.28;;;1.92;;
22644;SDS011;11489;50.834;6.752;2023-04-01T18:29:48;2.63;;;1.70;;
22644;SDS011;11489;50.834;6.752;2023-04-01T18:32:27;3.55;;;2.10;;
22644;SDS011;11489;50.834;6.752;2023-04-01T18:38:12;2.90;;;2.30;;
22644;SDS011;11489;50.834;6.752;2023-04-01T18:40:52;2.45;;;2.15;;
22644;SDS011;11489;50.834;6.752;2023-04-01T18:43:37;2.75;;;2.45;;
22644;SDS011;11489;50.834;6.752;2023-04-01T18:46:16;2.88;;;2.42;;
22644;SDS011;11489;50.834;6.752;2023-04-01T18:51:36;2.78;;;2.53;;
22644;SDS011;11489;50.834;6.752;2023-04-01T18:54:11;3.08;;;2.55;;
22644;SDS011;11489;50.834;6.752;2023-04-01T18:56:49;5.15;;;2.95;;
22644;SDS011;11489;50.834;6.752;2023-04-01T18:59:28;3.97;;;3.35;;
22644;SDS011;11489;50.834;6.752;2023-04-01T19:02:16;3.45;;;2.70;;
22644;SDS011;11489;50.834;6.752;2023-04-01T19:05:13;3.90;;;3.00;;
22644;SDS011;11489;50.834;6.752;2023-04-01T19:07:48;3.58;;;3.22;;
22644;SDS011;11489;50.834;6.752;2023-04-01T19:10:20;4.43;;;3.50;;
22644;SDS011;11489;50.834;6.752;2023-04-01T19:15:56;6.88;;;4.13;;
22644;SDS011;11489;50.834;6.752;2023-04-01T19:21:33;5.53;;;3.97;;
22644;SDS011;11489;50.834;6.752;2023-04-01T19:24:22;7.35;;;4.20;;
22644;SDS011;11489;50.834;6.752;2023-04-01T19:27:28;6.05;;;3.92;;
22644;SDS011;11489;50.834;6.752;2023-04-01T19:30:15;5.72;;;4.30;;
22644;SDS011;11489;50.834;6.752;2023-04-01T19:33:10;5.70;;;3.90;;
22644;SDS011;11489;50.834;6.752;2023-04-01T19:36:09;4.70;;;4.10;;
22644;SDS011;11489;50.834;6.752;2023-04-01T19:38:52;6.18;;;4.10;;
22644;SDS011;11489;50.834;6.752;2023-04-01T19:44:04;5.03;;;4.03;;
22644;SDS011;11489;50.834;6.752;2023-04-01T19:46:46;5.13;;;3.88;;
22644;SDS011;11489;50.834;6.752;2023-04-01T20:00:05;4.32;;;3.50;;
22644;SDS011;11489;50.834;6.752;2023-04-01T20:02:55;3.60;;;3.08;;
22644;SDS011;11489;50.834;6.752;2023-04-01T20:08:16;3.10;;;2.50;;
22644;SDS011;11489;50.834;6.752;2023-04-01T20:10:48;3.15;;;2.25;;
22644;SDS011;11489;50.834;6.752;2023-04-01T20:15:58;3.22;;;2.08;;
22644;SDS011;11489;50.834;6.752;2023-04-01T20:18:34;2.53;;;1.80;;
22644;SDS011;11489;50.834;6.752;2023-04-01T20:23:59;3.13;;;2.00;;
22644;SDS011;11489;50.834;6.752;2023-04-01T20:26:38;1.65;;;1.50;;
22644;SDS011;11489;50.834;6.752;2023-04-01T20:32:24;2.00;;;1.70;;
22644;SDS011;11489;50.834;6.752;2023-04-01T20:40:17;2.30;;;2.10;;
22644;SDS011;11489;50.834;6.752;2023-04-01T20:43:29;2.47;;;2.10;;
22644;SDS011;11489;50.834;6.752;2023-04-01T20:46:07;2.85;;;2.10;;
22644;SDS011;11489;50.834;6.752;2023-04-01T20:51:38;2.33;;;2.13;;
22644;SDS011;11489;50.834;6.752;2023-04-01T20:57:06;2.40;;;2.10;;
22644;SDS011;11489;50.834;6.752;2023-04-01T21:03:11;3.10;;;2.22;;
22644;SDS011;11489;50.834;6.752;2023-04-01T21:05:56;2.60;;;2.22;;
22644;SDS011;11489;50.834;6.752;2023-04-01T21:11:35;2.88;;;2.20;;
22644;SDS011;11489;50.834;6.752;2023-04-01T21:16:41;2.38;;;2.17;;
22644;SDS011;11489;50.834;6.752;2023-04-01T21:22:00;3.30;;;2.15;;
22644;SDS011;11489;50.834;6.752;2023-04-01T21:25:17;2.72;;;2.15;;
22644;SDS011;11489;50.834;6.752;2023-04-01T21:33:13;3.08;;;2.17;;
22644;SDS011;11489;50.834;6.752;2023-04-01T21:43:52;2.78;;;2.10;;
22644;SDS011;11489;50.834;6.752;2023-04-01T21:49:16;2.30;;;2.10;;
22644;SDS011;11489;50.834;6.752;2023-04-01T21:55:01;3.15;;;2.00;;
22644;SDS011;11489;50.834;6.752;2023-04-01T21:57:57;3.05;;;2.33;;
22644;SDS011;11489;50.834;6.752;2023-04-01T22:08:53;2.88;;;2.58;;
22644;SDS011;11489;50.834;6.752;2023-04-01T22:26:05;3.65;;;2.80;;
22644;SDS011;11489;50.834;6.752;2023-04-01T22:31:44;3.47;;;3.00;;
22644;SDS011;11489;50.834;6.752;2023-04-01T22:34:28;4.65;;;3.28;;
22644;SDS011;11489;50.834;6.752;2023-04-01T22:45:05;8.65;;;5.72;;
22644;SDS011;11489;50.834;6.752;2023-04-01T22:50:20;7.85;;;6.38;;
22644;SDS011;11489;50.834;6.752;2023-04-01T22:52:52;8.52;;;6.65;;
22644;SDS011;11489;50.834;6.752;2023-04-01T22:55:32;7.30;;;5.93;;
22644;SDS011;11489;50.834;6.752;2023-04-01T22:58:14;6.88;;;6.00;;
22644;SDS011;11489;50.834;6.752;2023-04-01T23:00:50;6.95;;;5.75;;
22644;SDS011;11489;50.834;6.752;2023-04-01T23:03:30;7.60;;;5.85;;
22644;SDS011;11489;50.834;6.752;2023-04-01T23:06:01;6.00;;;5.20;;
22644;SDS011;11489;50.834;6.752;2023-04-01T23:08:38;6.60;;;5.43;;
22644;SDS011;11489;50.834;6.752;2023-04-01T23:25:17;4.43;;;3.53;;
22644;SDS011;11489;50.834;6.752;2023-04-01T23:35:55;4.25;;;3.67;;
22644;SDS011;11489;50.834;6.752;2023-04-01T23:38:40;4.25;;;3.83;;
22644;SDS011;11489;50.834;6.752;2023-04-01T23:41:07;5.15;;;4.20;;
22644;SDS011;11489;50.834;6.752;2023-04-01T23:43:42;5.47;;;4.50;;
22644;SDS011;11489;50.834;6.752;2023-04-01T23:46:09;5.57;;;4.93;;
22644;SDS011;11489;50.834;6.752;2023-04-01T23:48:42;7.78;;;6.15;;
22644;SDS011;11489;50.834;6.752;2023-04-01T23:54:17;8.18;;;6.80;;
22644;SDS011;11489;50.834;6.752;2023-04-01T23:57:03;7.20;;;6.28;;
22644;SDS011;11489;50.834;6.752;2023-04-01T23:59:35;7.95;;;5.63;;
